Time;durP1;ratioP1;P1;durP2;ratioP2;P2;SDS_P1;SDS_P2;PMS_P1;PMS_P2;Temp;Humidity;BMP_temperature;BMP_pressure;BME280_temperature;BME280_humidity;BME280_pressure;Samples;Min_cycle;Max_cycle;Signal;HPM_P1;HPM_P2
2021/04/04 00:01:59;;;;;;;7.82;3.30;;;11.10;95.10;;;;;;5038546;28;20289;-72
2021/04/04 00:04:25;;;;;;;8.85;3.65;;;11.10;95.20;;;;;;5043879;28;20199;-72
2021/04/04 00:06:51;;;;;;;4.43;2.40;;;11.10;95.20;;;;;;5039255;28;20195;-73
2021/04/04 00:09:19;;;;;;;6.60;2.45;;;11.10;95.20;;;;;;5039327;28;20203;-72
2021/04/04 00:11:46;;;;;;;4.40;2.90;;;11.10;95.20;;;;;;5035392;28;20202;-73
2021/04/04 00:14:12;;;;;;;9.80;3.45;;;11.10;95.10;;;;;;5030742;28;20246;-72
2021/04/04 00:16:38;;;;;;;4.47;3.40;;;11.10;95.20;;;;;;5050401;28;20199;-73
2021/04/04 00:19:05;;;;;;;5.72;3.05;;;11.00;95.10;;;;;;5037105;28;20234;-72
2021/04/04 00:21:32;;;;;;;7.18;2.90;;;11.00;95.10;;;;;;5039854;28;20210;-73
2021/04/04 00:23:58;;;;;;;9.40;2.03;;;11.00;95.10;;;;;;5034857;28;20203;-73
2021/04/04 00:26:24;;;;;;;6.47;2.55;;;11.00;95.00;;;;;;5032206;28;20207;-72
2021/04/04 00:28:50;;;;;;;7.60;3.05;;;11.00;95.00;;;;;;5043848;28;20191;-72
2021/04/04 00:31:16;;;;;;;5.80;2.80;;;11.00;95.50;;;;;;5046460;28;20194;-72
2021/04/04 00:33:43;;;;;;;9.55;3.20;;;11.00;95.20;;;;;;5046364;28;20198;-72
2021/04/04 00:36:10;;;;;;;5.22;2.70;;;11.00;95.20;;;;;;5031607;28;20226;-72
2021/04/04 00:38:36;;;;;;;6.65;3.10;;;11.00;95.20;;;;;;5031609;28;20218;-72
2021/04/04 00:41:02;;;;;;;5.50;2.33;;;10.90;95.20;;;;;;5047734;28;20210;-71
2021/04/04 00:43:28;;;;;;;11.43;2.63;;;10.90;95.30;;;;;;5039036;28;20206;-72
2021/04/04 00:45:55;;;;;;;8.57;2.83;;;10.90;95.30;;;;;;5031578;28;20206;-72
2021/04/04 00:48:22;;;;;;;8.15;3.50;;;10.90;95.30;;;;;;5031168;28;20199;-71
2021/04/04 00:50:48;;;;;;;8.27;3.42;;;10.90;95.30;;;;;;5036994;28;20202;-71
2021/04/04 00:53:15;;;;;;;5.53;2.63;;;10.90;95.40;;;;;;5030653;28;20203;-72
2021/04/04 00:55:41;;;;;;;5.50;3.55;;;10.90;95.40;;;;;;5042268;28;20258;-72
2021/04/04 00:58:08;;;;;;;6.97;2.95;;;10.80;95.50;;;;;;5030059;28;20695;-72
2021/04/04 01:00:35;;;;;;;8.02;3.35;;;10.80;95.50;;;;;;5031356;28;20234;-72
2021/04/04 01:03:01;;;;;;;4.90;2.45;;;10.80;95.50;;;;;;5043413;28;20296;-72
2021/04/04 01:05:31;;;;;;;5.18;3.00;;;10.80;95.50;;;;;;5040367;28;20206;-72
2021/04/04 01:07:58;;;;;;;7.40;2.58;;;10.80;95.60;;;;;;5038837;28;20195;-72
2021/04/04 01:10:29;;;;;;;5.93;2.28;;;10.90;95.70;;;;;;5046529;28;20297;-72
2021/04/04 01:13:05;;;;;;;6.72;2.42;;;10.80;96.00;;;;;;5050966;28;20205;-72
2021/04/04 01:15:34;;;;;;;5.20;2.35;;;10.80;95.70;;;;;;5038526;28;20310;-72
2021/04/04 01:18:04;;;;;;;5.60;2.60;;;10.80;96.00;;;;;;5040229;28;20198;-72
2021/04/04 01:20:39;;;;;;;6.20;2.97;;;10.80;95.70;;;;;;5048893;28;20230;-72
2021/04/04 01:23:48;;;;;;;6.63;2.35;;;10.80;95.70;;;;;;5047245;28;20225;-72
2021/04/04 01:26:34;;;;;;;6.47;3.05;;;10.70;95.90;;;;;;5040780;28;20218;-72
2021/04/04 01:29:02;;;;;;;4.88;2.30;;;10.70;95.80;;;;;;5040459;28;20210;-72
2021/04/04 01:31:29;;;;;;;5.25;1.98;;;10.80;95.90;;;;;;5046513;28;20203;-72
2021/04/04 01:33:57;;;;;;;8.02;2.50;;;10.70;95.80;;;;;;5037904;28;20195;-72
2021/04/04 01:36:25;;;;;;;9.07;2.90;;;10.80;95.90;;;;;;5052452;28;20202;-71
2021/04/04 01:38:53;;;;;;;3.25;2.35;;;10.70;95.90;;;;;;5036529;28;20690;-72
2021/04/04 01:41:24;;;;;;;5.55;2.70;;;10.80;95.80;;;;;;5054753;28;20226;-72
2021/04/04 01:43:56;;;;;;;5.82;2.55;;;10.80;95.80;;;;;;5038507;28;20274;-72
2021/04/04 01:46:23;;;;;;;6.65;2.72;;;10.70;95.90;;;;;;5034287;28;20200;-71
2021/04/04 01:48:50;;;;;;;6.75;2.35;;;10.70;95.90;;;;;;5036805;28;20194;-72
2021/04/04 01:51:16;;;;;;;3.88;2.50;;;10.70;96.10;;;;;;5034831;28;20207;-71
2021/04/04 01:53:44;;;;;;;11.25;2.97;;;10.70;95.90;;;;;;5041597;28;20690;-71
2021/04/04 01:56:10;;;;;;;6.30;3.05;;;10.70;95.90;;;;;;5048749;28;20187;-71
2021/04/04 01:58:38;;;;;;;4.95;2.47;;;10.70;96.00;;;;;;5047777;28;20634;-72
2021/04/04 02:01:06;;;;;;;6.70;2.85;;;10.70;95.90;;;;;;5038050;28;20203;-71
2021/04/04 02:03:34;;;;;;;7.03;2.50;;;10.70;95.90;;;;;;5050056;28;20618;-72
2021/04/04 02:06:02;;;;;;;5.10;2.65;;;10.70;95.80;;;;;;5040873;28;20195;-71
2021/04/04 02:08:28;;;;;;;3.90;2.10;;;10.70;96.00;;;;;;5036999;28;20199;-72
2021/04/04 02:10:56;;;;;;;6.07;2.13;;;10.70;96.10;;;;;;5043267;28;20204;-72
2021/04/04 02:13:25;;;;;;;12.23;3.72;;;10.60;96.20;;;;;;5040213;28;20199;-72
2021/04/04 02:15:52;;;;;;;7.88;2.90;;;10.60;96.50;;;;;;5046813;28;20288;-72
2021/04/04 02:18:18;;;;;;;11.15;2.63;;;10.70;96.10;;;;;;5034351;28;20200;-72
2021/04/04 02:20:48;;;;;;;6.78;2.33;;;10.60;96.10;;;;;;5041608;28;20246;-72
2021/04/04 02:23:16;;;;;;;5.15;2.22;;;10.70;96.00;;;;;;5035317;28;20220;-72
2021/04/04 02:25:42;;;;;;;4.57;3.13;;;10.60;96.00;;;;;;5052821;28;20250;-72
2021/04/04 02:28:08;;;;;;;7.72;3.10;;;10.60;96.10;;;;;;5034668;28;20202;-72
2021/04/04 02:30:35;;;;;;;4.15;2.20;;;10.70;96.00;;;;;;5036711;28;20198;-71
2021/04/04 02:33:09;;;;;;;5.07;2.50;;;10.70;96.00;;;;;;5034147;28;20213;-72
2021/04/04 02:35:39;;;;;;;5.32;2.35;;;10.60;96.10;;;;;;5033668;28;20199;-71
2021/04/04 02:38:11;;;;;;;5.50;2.53;;;10.60;96.00;;;;;;5035274;28;20199;-71
2021/04/04 02:40:39;;;;;;;7.22;2.30;;;10.60;96.20;;;;;;5040339;28;20257;-72
2021/04/04 02:43:09;;;;;;;3.75;2.58;;;10.60;96.30;;;;;;5035427;28;20219;-72
2021/04/04 02:45:37;;;;;;;8.32;2.90;;;10.60;96.20;;;;;;5039631;28;20295;-72
2021/04/04 02:48:06;;;;;;;8.43;3.13;;;10.60;96.20;;;;;;5037050;28;20204;-72
2021/04/04 02:50:34;;;;;;;4.97;2.80;;;10.60;96.30;;;;;;5034205;28;20202;-72
2021/04/04 02:53:01;;;;;;;7.72;2.63;;;10.60;96.30;;;;;;5037254;28;20261;-72
2021/04/04 02:55:30;;;;;;;12.77;3.95;;;10.60;96.10;;;;;;5038041;28;20203;-71
2021/04/04 02:57:58;;;;;;;6.75;1.88;;;10.60;96.20;;;;;;5038917;28;20291;-71
2021/04/04 03:00:25;;;;;;;4.43;2.53;;;10.60;96.10;;;;;;5034166;28;20207;-70
2021/04/04 03:02:53;;;;;;;9.15;3.85;;;10.60;96.10;;;;;;5037993;28;20270;-71
2021/04/04 03:05:23;;;;;;;6.15;2.35;;;10.60;96.20;;;;;;5040126;28;20195;-71
2021/04/04 03:07:52;;;;;;;5.25;2.72;;;10.60;96.10;;;;;;5045523;28;20199;-70
2021/04/04 03:10:18;;;;;;;3.90;1.90;;;10.60;96.20;;;;;;5049436;28;20743;-70
2021/04/04 03:12:48;;;;;;;4.20;2.30;;;10.60;96.30;;;;;;5052957;28;20659;-71
2021/04/04 03:15:16;;;;;;;7.20;2.53;;;10.60;96.20;;;;;;5033363;28;20200;-71
2021/04/04 03:17:44;;;;;;;4.28;2.55;;;10.50;96.10;;;;;;5041308;28;20199;-71
2021/04/04 03:20:12;;;;;;;6.32;2.75;;;10.50;96.20;;;;;;5042159;28;20238;-71
2021/04/04 03:22:41;;;;;;;6.70;3.33;;;10.50;96.40;;;;;;5045561;28;20226;-71
2021/04/04 03:25:09;;;;;;;12.45;3.10;;;10.50;96.50;;;;;;5051353;28;20202;-72
2021/04/04 03:27:37;;;;;;;7.55;3.17;;;10.50;96.30;;;;;;5032603;28;20216;-73
2021/04/04 03:30:07;;;;;;;5.18;2.70;;;10.50;96.30;;;;;;5032817;28;20251;-73
2021/04/04 03:32:35;;;;;;;6.25;2.85;;;10.40;96.50;;;;;;5039119;28;20270;-71
2021/04/04 03:35:03;;;;;;;5.18;2.50;;;10.50;96.50;;;;;;5039966;28;20941;-71
2021/04/04 03:37:30;;;;;;;4.53;2.60;;;10.40;96.60;;;;;;5034135;28;20545;-71
2021/04/04 03:39:57;;;;;;;6.18;2.92;;;10.40;96.50;;;;;;5032485;28;20408;-71
2021/04/04 03:42:25;;;;;;;5.47;2.47;;;10.50;96.50;;;;;;5047808;28;20214;-71
2021/04/04 03:44:52;;;;;;;11.43;2.72;;;10.40;96.50;;;;;;5040265;28;20191;-71
2021/04/04 03:47:20;;;;;;;3.80;2.50;;;10.40;96.50;;;;;;5032083;28;20219;-71
2021/04/04 03:49:46;;;;;;;5.43;2.72;;;10.40;96.70;;;;;;5047751;28;20542;-71
2021/04/04 03:52:15;;;;;;;6.38;2.85;;;10.40;96.60;;;;;;5035293;28;20587;-71
2021/04/04 03:54:42;;;;;;;5.95;2.97;;;10.40;96.50;;;;;;5032468;28;20513;-71
2021/04/04 03:57:10;;;;;;;6.75;2.90;;;10.40;96.50;;;;;;5032962;28;20659;-71
2021/04/04 03:59:40;;;;;;;5.82;3.63;;;10.40;96.50;;;;;;5032938;28;20207;-71
2021/04/04 04:02:07;;;;;;;7.10;3.58;;;10.40;96.40;;;;;;5031665;28;20223;-71
2021/04/04 04:04:36;;;;;;;8.05;2.05;;;10.40;96.40;;;;;;5031776;28;20204;-71
2021/04/04 04:07:04;;;;;;;5.20;2.17;;;10.40;96.50;;;;;;5042927;28;20199;-71
2021/04/04 04:09:33;;;;;;;3.28;2.22;;;10.40;96.40;;;;;;5036894;28;20548;-71
2021/04/04 04:12:00;;;;;;;4.00;2.55;;;10.40;96.50;;;;;;5031743;28;20259;-71
2021/04/04 04:14:27;;;;;;;6.13;3.30;;;10.40;96.40;;;;;;5035849;28;20203;-71
2021/04/04 04:16:54;;;;;;;5.85;2.95;;;10.40;96.30;;;;;;5034157;28;20202;-71
2021/04/04 04:19:20;;;;;;;4.75;2.20;;;10.40;96.30;;;;;;5035110;28;20298;-71
2021/04/04 04:21:48;;;;;;;6.47;2.67;;;10.40;96.40;;;;;;5031876;28;20220;-71
2021/04/04 04:24:16;;;;;;;4.05;2.40;;;10.40;96.40;;;;;;5031937;28;20274;-71
2021/04/04 04:26:46;;;;;;;3.95;2.10;;;10.40;96.60;;;;;;5045086;28;20206;-71
2021/04/04 04:29:14;;;;;;;6.97;2.65;;;10.30;96.50;;;;;;5046702;28;20202;-71
2021/04/04 04:31:43;;;;;;;6.30;2.20;;;10.30;96.60;;;;;;5041891;28;20202;-71
2021/04/04 04:34:11;;;;;;;12.27;3.40;;;10.40;96.40;;;;;;5043415;28;20198;-71
2021/04/04 04:36:39;;;;;;;6.22;2.35;;;10.30;96.50;;;;;;5031832;28;20208;-71
2021/04/04 04:39:08;;;;;;;9.48;2.38;;;10.30;96.50;;;;;;5043047;28;20210;-70
2021/04/04 04:41:37;;;;;;;5.30;2.03;;;10.30;96.60;;;;;;5033718;28;20635;-70
2021/04/04 04:44:06;;;;;;;5.45;2.25;;;10.40;96.50;;;;;;5043216;28;20590;-72
2021/04/04 04:46:34;;;;;;;6.70;2.45;;;10.40;96.50;;;;;;5038806;28;20214;-72
2021/04/04 04:49:00;;;;;;;6.93;2.58;;;10.40;96.50;;;;;;5044087;28;20229;-72
2021/04/04 04:51:28;;;;;;;3.25;2.60;;;10.30;96.60;;;;;;5049303;28;20264;-72
2021/04/04 04:53:54;;;;;;;4.85;2.30;;;10.30;96.50;;;;;;5035713;28;20204;-71
2021/04/04 04:56:22;;;;;;;6.15;3.30;;;10.30;96.50;;;;;;5030817;28;20698;-72
2021/04/04 04:58:48;;;;;;;9.90;2.63;;;10.30;96.60;;;;;;5031733;28;20835;-72
2021/04/04 05:01:17;;;;;;;5.95;2.50;;;10.30;96.60;;;;;;5042239;28;20199;-72
2021/04/04 05:03:44;;;;;;;5.60;2.20;;;10.20;96.80;;;;;;5040560;28;20203;-72
2021/04/04 05:06:11;;;;;;;5.38;2.53;;;10.20;96.90;;;;;;5038321;28;21811;-72
2021/04/04 05:08:39;;;;;;;5.80;2.38;;;10.20;96.90;;;;;;5035282;28;20207;-72
2021/04/04 05:11:08;;;;;;;5.93;2.60;;;10.20;96.90;;;;;;5051946;28;20289;-72
2021/04/04 05:13:38;;;;;;;4.35;2.50;;;10.20;97.00;;;;;;5047901;28;20207;-72
2021/04/04 05:16:08;;;;;;;4.22;2.20;;;10.20;96.80;;;;;;5040355;28;20321;-72
2021/04/04 05:18:35;;;;;;;7.00;2.03;;;10.30;96.70;;;;;;5055145;28;20261;-72
2021/04/04 05:21:01;;;;;;;6.32;2.70;;;10.20;96.90;;;;;;5045986;28;20223;-72
2021/04/04 05:23:27;;;;;;;7.25;2.70;;;10.20;97.00;;;;;;5052578;28;20218;-71
2021/04/04 05:25:54;;;;;;;6.15;2.60;;;10.20;97.20;;;;;;5037621;28;20195;-73
2021/04/04 05:28:21;;;;;;;7.10;1.90;;;10.10;97.30;;;;;;5044760;28;20208;-72
2021/04/04 05:30:48;;;;;;;7.65;2.60;;;10.20;97.30;;;;;;5051111;28;20219;-72
2021/04/04 05:33:14;;;;;;;5.25;3.40;;;10.20;97.10;;;;;;5055179;28;20190;-72
2021/04/04 05:35:42;;;;;;;5.97;2.70;;;10.20;97.10;;;;;;5038258;28;20203;-72
2021/04/04 05:38:09;;;;;;;5.75;2.50;;;10.20;97.00;;;;;;5036876;28;20632;-72
2021/04/04 05:40:36;;;;;;;5.90;2.50;;;10.20;97.00;;;;;;5044281;28;20195;-72
2021/04/04 05:43:09;;;;;;;3.05;2.20;;;10.20;96.90;;;;;;5045252;28;20228;-72
2021/04/04 05:45:39;;;;;;;8.30;2.42;;;10.20;96.70;;;;;;5050356;28;20512;-72
2021/04/04 05:48:20;;;;;;;5.70;2.92;;;10.20;97.10;;;;;;5053301;28;20206;-71
2021/04/04 05:51:20;;;;;;;8.07;2.40;;;10.20;97.00;;;;;;5033847;28;20293;-70
2021/04/04 05:54:00;;;;;;;4.65;2.38;;;10.20;96.80;;;;;;5033560;28;20212;-70
2021/04/04 05:56:31;;;;;;;6.05;2.83;;;10.20;96.80;;;;;;5034863;28;20225;-71
2021/04/04 05:59:02;;;;;;;6.40;2.60;;;10.20;96.60;;;;;;5036479;28;20210;-72
2021/04/04 06:01:58;;;;;;;4.15;2.60;;;10.30;96.50;;;;;;5038234;28;20643;-69
2021/04/04 06:05:01;;;;;;;4.68;2.42;;;10.20;96.60;;;;;;5048483;28;20195;-71
2021/04/04 06:07:58;;;;;;;4.20;2.03;;;10.20;96.80;;;;;;5046277;28;20199;-71
2021/04/04 06:10:30;;;;;;;8.05;2.30;;;10.20;96.60;;;;;;5053456;28;20237;-71
2021/04/04 06:13:06;;;;;;;4.93;2.05;;;10.20;96.60;;;;;;5053737;28;20179;-73
2021/04/04 06:15:45;;;;;;;2.45;1.73;;;10.20;96.60;;;;;;5035401;28;20286;-71
2021/04/04 06:18:22;;;;;;;4.28;2.35;;;10.20;96.60;;;;;;5036155;28;20200;-71
2021/04/04 06:20:55;;;;;;;5.22;2.58;;;10.20;96.80;;;;;;5040381;28;20710;-71
2021/04/04 06:23:26;;;;;;;12.43;3.35;;;10.20;96.40;;;;;;5033948;28;20223;-71
2021/04/04 06:25:59;;;;;;;2.50;2.10;;;10.20;96.70;;;;;;5034267;28;20664;-71
2021/04/04 06:28:33;;;;;;;5.57;2.35;;;10.20;96.60;;;;;;5033657;28;20662;-71
2021/04/04 06:31:08;;;;;;;5.95;2.70;;;10.20;96.70;;;;;;5041902;28;20666;-71
2021/04/04 06:33:40;;;;;;;4.53;2.40;;;10.20;96.50;;;;;;5041251;28;20266;-71
2021/04/04 06:36:17;;;;;;;5.03;2.40;;;10.20;96.50;;;;;;5042162;28;20294;-71
2021/04/04 06:39:03;;;;;;;5.45;2.50;;;10.20;96.30;;;;;;5033418;28;20211;-71
2021/04/04 06:41:42;;;;;;;3.90;2.53;;;10.20;96.30;;;;;;5042558;28;20203;-71
2021/04/04 06:44:20;;;;;;;3.78;2.17;;;10.20;96.30;;;;;;5052270;28;20198;-71
2021/04/04 06:46:55;;;;;;;7.65;2.65;;;10.20;96.30;;;;;;5045756;28;20204;-70
2021/04/04 06:49:32;;;;;;;2.90;1.88;;;10.20;96.50;;;;;;5053749;28;20187;-71
2021/04/04 06:52:09;;;;;;;2.97;2.10;;;10.20;96.70;;;;;;5052740;28;20194;-70
2021/04/04 06:54:57;;;;;;;4.15;2.15;;;10.20;96.60;;;;;;5037413;28;20250;-71
2021/04/04 06:57:39;;;;;;;7.03;2.42;;;10.10;96.60;;;;;;5034299;28;20196;-72
2021/04/04 07:00:09;;;;;;;3.67;2.17;;;10.10;96.90;;;;;;5033290;28;20274;-71
2021/04/04 07:02:45;;;;;;;2.50;1.60;;;10.00;96.80;;;;;;5053576;28;20206;-71
2021/04/04 07:05:14;;;;;;;5.00;2.03;;;10.10;96.90;;;;;;5038414;28;20887;-71
2021/04/04 07:08:28;;;;;;;6.22;2.20;;;10.20;96.70;;;;;;5039903;28;20191;-70
2021/04/04 07:11:02;;;;;;;5.45;1.90;;;10.20;96.80;;;;;;5048534;28;20191;-70
2021/04/04 07:13:55;;;;;;;6.85;2.00;;;10.00;97.00;;;;;;5040336;28;20201;-70
2021/04/04 07:16:39;;;;;;;4.15;1.75;;;10.10;97.00;;;;;;5039425;28;20207;-71
2021/04/04 07:19:37;;;;;;;3.78;2.33;;;10.10;97.20;;;;;;5046542;28;20223;-71
2021/04/04 07:22:14;;;;;;;3.47;1.63;;;10.10;97.10;;;;;;5037231;28;20222;-71
2021/04/04 07:25:00;;;;;;;2.08;1.88;;;10.10;97.00;;;;;;5047361;28;20937;-70
2021/04/04 07:27:37;;;;;;;4.35;1.70;;;10.10;97.10;;;;;;5040050;28;20203;-71
2021/04/04 07:30:28;;;;;;;7.40;1.83;;;10.10;96.90;;;;;;5043055;28;20273;-70
2021/04/04 07:32:59;;;;;;;10.10;2.28;;;10.10;96.90;;;;;;5042152;28;20249;-70
2021/04/04 07:35:29;;;;;;;4.80;1.92;;;10.10;97.00;;;;;;5031030;28;20262;-70
2021/04/04 07:38:01;;;;;;;4.95;1.83;;;10.10;96.90;;;;;;5036424;28;20270;-70
2021/04/04 07:40:35;;;;;;;4.50;1.75;;;10.10;96.80;;;;;;5044227;28;20195;-70
2021/04/04 07:43:04;;;;;;;3.47;1.85;;;10.10;96.70;;;;;;5040139;28;20207;-72
2021/04/04 07:45:36;;;;;;;2.70;1.65;;;10.20;96.60;;;;;;5038681;28;20203;-69
2021/04/04 07:48:12;;;;;;;3.67;1.98;;;10.20;96.10;;;;;;5040299;28;20198;-70
2021/04/04 07:50:43;;;;;;;2.60;2.30;;;10.30;95.90;;;;;;5041388;28;20199;-72
2021/04/04 07:53:18;;;;;;;9.30;1.92;;;10.30;95.80;;;;;;5032968;28;20188;-71
2021/04/04 07:55:50;;;;;;;2.67;1.67;;;10.30;96.00;;;;;;5039775;28;20722;-69
2021/04/04 07:58:22;;;;;;;4.20;1.80;;;10.30;96.00;;;;;;5035825;28;20207;-69
2021/04/04 08:00:54;;;;;;;5.82;1.95;;;10.30;95.90;;;;;;5045779;28;20191;-69
2021/04/04 08:03:26;;;;;;;4.63;1.50;;;10.40;96.10;;;;;;5039853;28;20877;-69
2021/04/04 08:06:00;;;;;;;2.60;1.70;;;10.30;96.20;;;;;;5033055;28;20195;-70
2021/04/04 08:08:33;;;;;;;5.25;1.85;;;10.30;96.10;;;;;;5035814;28;20213;-71
2021/04/04 08:11:12;;;;;;;3.10;1.88;;;10.30;96.00;;;;;;5041133;28;20195;-70
2021/04/04 08:13:44;;;;;;;3.30;1.90;;;10.30;96.00;;;;;;5031554;28;20245;-69
2021/04/04 08:16:14;;;;;;;3.13;1.45;;;10.30;96.60;;;;;;5042548;28;20574;-70
2021/04/04 08:18:41;;;;;;;4.40;2.00;;;10.20;96.30;;;;;;5038126;28;20310;-71
2021/04/04 08:21:12;;;;;;;4.35;2.00;;;10.20;96.40;;;;;;5038940;28;20203;-71
2021/04/04 08:23:44;;;;;;;4.10;1.80;;;10.30;96.50;;;;;;5033815;28;20226;-71
2021/04/04 08:26:25;;;;;;;4.35;1.58;;;10.30;96.30;;;;;;5040654;28;20221;-70
2021/04/04 08:29:00;;;;;;;2.85;1.45;;;10.30;96.30;;;;;;5036547;28;20290;-71
2021/04/04 08:31:30;;;;;;;4.00;2.42;;;10.40;96.60;;;;;;5035063;28;20313;-70
2021/04/04 08:34:01;;;;;;;8.32;1.40;;;10.40;96.20;;;;;;5032893;28;20203;-70
2021/04/04 08:36:31;;;;;;;3.20;1.60;;;10.40;96.20;;;;;;5036768;28;20210;-70
2021/04/04 08:39:00;;;;;;;2.47;1.52;;;10.40;96.10;;;;;;5035022;28;20230;-70
2021/04/04 08:41:30;;;;;;;3.53;1.95;;;10.40;96.10;;;;;;5034148;28;20217;-69
2021/04/04 08:43:59;;;;;;;3.08;1.45;;;10.40;96.20;;;;;;5040545;28;20619;-71
2021/04/04 08:46:32;;;;;;;2.20;1.48;;;10.40;96.30;;;;;;5039060;28;20199;-70
2021/04/04 08:49:00;;;;;;;3.80;1.30;;;10.40;96.20;;;;;;5039670;28;20690;-70
2021/04/04 08:51:31;;;;;;;1.75;1.60;;;10.40;96.20;;;;;;5035316;28;20196;-70
2021/04/04 08:53:59;;;;;;;2.30;1.30;;;10.40;96.30;;;;;;5037827;28;20191;-71
2021/04/04 08:56:27;;;;;;;5.05;2.53;;;10.40;96.30;;;;;;5035802;28;20210;-70
2021/04/04 08:58:56;;;;;;;2.25;1.58;;;10.40;96.20;;;;;;5038695;28;20587;-71
2021/04/04 09:01:27;;;;;;;1.90;1.70;;;10.40;96.20;;;;;;5033422;28;20738;-70
2021/04/04 09:03:58;;;;;;;4.75;3.10;;;10.40;96.20;;;;;;5041936;28;20207;-71
2021/04/04 09:06:25;;;;;;;2.58;1.20;;;10.40;96.50;;;;;;5038738;28;20199;-71
2021/04/04 09:08:52;;;;;;;1.92;1.35;;;10.30;96.70;;;;;;5039267;28;20199;-70
2021/04/04 09:11:21;;;;;;;2.92;1.40;;;10.30;96.70;;;;;;5041381;28;20195;-71
2021/04/04 09:13:50;;;;;;;1.95;1.10;;;10.30;96.60;;;;;;5034751;28;20199;-71
2021/04/04 09:16:16;;;;;;;4.35;1.95;;;10.40;96.70;;;;;;5042223;28;20222;-71
2021/04/04 09:18:47;;;;;;;1.70;1.50;;;10.40;96.50;;;;;;5034735;28;20195;-71
2021/04/04 09:21:13;;;;;;;1.50;1.20;;;10.40;96.30;;;;;;5033997;28;20612;-71
2021/04/04 09:23:42;;;;;;;3.90;2.20;;;10.50;96.20;;;;;;5031262;28;20227;-71
2021/04/04 09:26:10;;;;;;;4.18;1.35;;;10.50;96.20;;;;;;5036713;28;20220;-70
2021/04/04 09:28:38;;;;;;;2.13;1.50;;;10.50;96.20;;;;;;5043744;28;20203;-70
2021/04/04 09:31:08;;;;;;;4.43;1.70;;;10.50;96.20;;;;;;5037552;28;20487;-71
2021/04/04 09:33:37;;;;;;;2.30;1.50;;;10.40;96.40;;;;;;5037436;28;20635;-70
2021/04/04 09:36:06;;;;;;;4.25;1.25;;;10.50;96.40;;;;;;5034456;28;20579;-70
2021/04/04 09:38:34;;;;;;;3.95;1.40;;;10.50;96.30;;;;;;5039481;28;20206;-74
2021/04/04 09:41:01;;;;;;;1.90;1.48;;;10.50;96.30;;;;;;5042834;28;20658;-71
2021/04/04 09:43:28;;;;;;;4.05;1.77;;;10.60;96.20;;;;;;5040203;28;20215;-71
2021/04/04 09:46:03;;;;;;;2.33;1.23;;;10.60;96.20;;;;;;5038484;28;20204;-71
2021/04/04 09:48:30;;;;;;;4.40;1.50;;;10.60;96.10;;;;;;5035237;28;20201;-71
2021/04/04 09:51:08;;;;;;;2.63;1.42;;;10.60;96.10;;;;;;5037048;28;20204;-71
2021/04/04 09:53:39;;;;;;;1.75;1.52;;;10.50;96.00;;;;;;5034344;28;20195;-71
2021/04/04 09:56:08;;;;;;;2.47;1.13;;;10.60;96.00;;;;;;5043424;28;20607;-71
2021/04/04 09:58:37;;;;;;;1.85;1.17;;;10.60;95.90;;;;;;5044178;28;20199;-71
2021/04/04 10:01:14;;;;;;;2.50;1.23;;;10.60;95.90;;;;;;5037185;28;20563;-71
2021/04/04 10:03:42;;;;;;;1.67;1.10;;;10.60;95.90;;;;;;5036692;28;20555;-71
2021/04/04 10:06:12;;;;;;;3.40;1.42;;;10.60;95.90;;;;;;5040390;28;20195;-72
2021/04/04 10:08:38;;;;;;;1.90;1.30;;;10.60;95.90;;;;;;5036101;28;20204;-71
2021/04/04 10:11:15;;;;;;;1.90;1.30;;;10.70;95.90;;;;;;5034970;28;20203;-72
2021/04/04 10:13:41;;;;;;;2.85;1.30;;;10.70;95.90;;;;;;5043931;28;20194;-71
2021/04/04 10:16:18;;;;;;;2.83;1.30;;;10.70;95.90;;;;;;5039009;28;20741;-71
2021/04/04 10:19:04;;;;;;;2.83;2.08;;;10.70;95.90;;;;;;5034636;28;20191;-70
2021/04/04 10:21:30;;;;;;;3.65;1.65;;;10.70;96.00;;;;;;5037506;28;20207;-72
2021/04/04 10:23:57;;;;;;;2.00;1.30;;;10.70;95.90;;;;;;5040136;28;20226;-70
2021/04/04 10:26:24;;;;;;;1.77;1.35;;;10.70;95.80;;;;;;5042163;28;20225;-71
2021/04/04 10:28:53;;;;;;;6.10;1.77;;;10.70;95.90;;;;;;5044963;28;20202;-70
2021/04/04 10:31:21;;;;;;;4.38;1.50;;;10.70;95.90;;;;;;5041499;28;20207;-70
2021/04/04 10:33:57;;;;;;;4.13;1.33;;;10.70;96.00;;;;;;5040729;28;20210;-70
2021/04/04 10:36:25;;;;;;;2.00;1.52;;;10.70;95.90;;;;;;5043395;28;20203;-71
2021/04/04 10:38:51;;;;;;;2.22;1.40;;;10.70;95.80;;;;;;5041504;28;20207;-70
2021/04/04 10:41:32;;;;;;;2.65;1.55;;;10.70;95.90;;;;;;5037085;28;20211;-72
2021/04/04 10:43:59;;;;;;;2.38;1.40;;;10.70;96.00;;;;;;5033598;28;20246;-71
2021/04/04 10:46:27;;;;;;;1.65;1.55;;;10.70;95.90;;;;;;5038630;28;20281;-72
2021/04/04 10:48:54;;;;;;;1.83;1.10;;;10.70;95.90;;;;;;5043941;28;20540;-72
2021/04/04 10:51:21;;;;;;;1.70;1.50;;;10.70;95.90;;;;;;5035982;28;20627;-70
2021/04/04 10:53:49;;;;;;;3.50;1.20;;;10.80;95.90;;;;;;5041857;28;20246;-70
2021/04/04 10:56:16;;;;;;;3.67;1.38;;;10.80;95.90;;;;;;5040993;28;20242;-71
2021/04/04 10:58:43;;;;;;;1.83;1.30;;;10.80;95.90;;;;;;5040501;28;20780;-70
2021/04/04 11:01:12;;;;;;;1.85;1.45;;;10.80;95.90;;;;;;5043948;28;20196;-71
2021/04/04 11:03:39;;;;;;;2.78;1.40;;;10.80;95.80;;;;;;5035975;28;20210;-75
2021/04/04 11:06:05;;;;;;;2.33;1.27;;;10.80;95.80;;;;;;5042462;28;20198;-71
2021/04/04 11:08:32;;;;;;;2.65;1.50;;;10.80;95.90;;;;;;5037585;28;20311;-69
2021/04/04 11:11:00;;;;;;;2.13;1.40;;;10.80;95.70;;;;;;5042787;28;20650;-70
2021/04/04 11:13:27;;;;;;;2.35;1.50;;;10.90;95.60;;;;;;5042418;28;20634;-69
2021/04/04 11:15:55;;;;;;;1.90;1.05;;;10.80;95.60;;;;;;5040675;28;20202;-70
2021/04/04 11:18:27;;;;;;;3.85;1.60;;;10.80;95.50;;;;;;5041328;28;20215;-70
2021/04/04 11:20:55;;;;;;;1.30;1.10;;;10.90;95.60;;;;;;5043548;28;20318;-70
2021/04/04 11:23:22;;;;;;;1.42;1.10;;;10.90;95.50;;;;;;5038962;28;20299;-70
2021/04/04 11:25:49;;;;;;;1.60;1.02;;;10.90;95.40;;;;;;5041741;28;20198;-70
2021/04/04 11:28:18;;;;;;;1.40;1.10;;;10.90;95.50;;;;;;5042688;28;20217;-70
2021/04/04 11:30:45;;;;;;;1.80;1.20;;;10.90;95.40;;;;;;5041685;28;20199;-70
2021/04/04 11:33:30;;;;;;;2.63;1.60;;;10.90;95.40;;;;;;5037705;28;20195;-70
2021/04/04 11:36:09;;;;;;;2.00;1.38;;;10.90;95.50;;;;;;5041976;28;20717;-70
2021/04/04 11:38:41;;;;;;;1.30;1.15;;;10.90;95.40;;;;;;5036299;28;20199;-69
2021/04/04 11:41:20;;;;;;;2.25;1.50;;;10.90;95.50;;;;;;5039138;28;20203;-71
2021/04/04 11:43:50;;;;;;;2.03;1.15;;;10.90;95.50;;;;;;5040919;28;20208;-70
2021/04/04 11:46:42;;;;;;;3.17;1.20;;;10.90;95.50;;;;;;5042296;28;20206;-71
2021/04/04 11:49:33;;;;;;;1.70;1.00;;;10.90;95.60;;;;;;5034926;28;20203;-70
2021/04/04 11:52:21;;;;;;;1.95;1.23;;;10.90;95.60;;;;;;5036111;28;20207;-72
2021/04/04 11:54:50;;;;;;;1.70;1.23;;;10.90;95.70;;;;;;5035616;28;20613;-70
2021/04/04 11:57:19;;;;;;;2.50;1.45;;;10.90;95.80;;;;;;5039104;28;20207;-70
2021/04/04 11:59:48;;;;;;;1.30;1.02;;;10.90;95.50;;;;;;5033853;28;20341;-72
2021/04/04 12:02:16;;;;;;;2.47;1.50;;;10.90;95.50;;;;;;5039785;28;20198;-72
2021/04/04 12:04:46;;;;;;;2.25;1.30;;;11.00;95.40;;;;;;5042862;28;20207;-70
2021/04/04 12:07:13;;;;;;;2.33;1.30;;;11.00;95.30;;;;;;5035988;28;20188;-70
2021/04/04 12:09:41;;;;;;;14.75;2.10;;;11.00;95.40;;;;;;5033087;28;20203;-70
2021/04/04 12:12:08;;;;;;;1.58;1.10;;;11.10;95.20;;;;;;5038291;28;20213;-70
2021/04/04 12:14:46;;;;;;;3.45;1.83;;;11.10;95.20;;;;;;5039580;28;20199;-71
2021/04/04 12:17:12;;;;;;;2.50;1.90;;;11.00;95.20;;;;;;5036203;28;20191;-70
2021/04/04 12:19:38;;;;;;;1.55;1.40;;;11.10;95.20;;;;;;5040254;28;20227;-69
2021/04/04 12:22:05;;;;;;;2.55;1.50;;;11.10;95.40;;;;;;5035204;28;20951;-69
2021/04/04 12:24:46;;;;;;;1.73;1.33;;;11.10;95.50;;;;;;5039531;28;20207;-70
2021/04/04 12:27:14;;;;;;;3.63;1.65;;;11.00;95.60;;;;;;5036798;28;20199;-69
2021/04/04 12:29:42;;;;;;;2.55;1.20;;;11.10;95.70;;;;;;5041010;28;20206;-70
2021/04/04 12:32:10;;;;;;;2.03;1.25;;;11.10;95.70;;;;;;5042193;28;20213;-69
2021/04/04 12:34:40;;;;;;;1.40;1.10;;;11.10;95.70;;;;;;5038504;28;20210;-69
2021/04/04 12:37:10;;;;;;;6.00;1.55;;;11.00;95.60;;;;;;5038040;28;20199;-69
2021/04/04 12:39:37;;;;;;;2.42;1.48;;;11.10;95.70;;;;;;5040784;28;20203;-70
2021/04/04 12:42:07;;;;;;;2.30;1.50;;;11.10;95.70;;;;;;5042826;28;20196;-69
2021/04/04 12:44:34;;;;;;;2.03;1.23;;;11.10;95.70;;;;;;5044271;28;20202;-69
2021/04/04 12:47:09;;;;;;;2.97;1.38;;;11.20;95.60;;;;;;5038893;28;20207;-69
2021/04/04 12:49:36;;;;;;;1.30;1.20;;;11.20;95.50;;;;;;5038938;28;20207;-69
2021/04/04 12:52:03;;;;;;;2.05;1.25;;;11.20;95.40;;;;;;5041729;28;20230;-69
2021/04/04 12:54:29;;;;;;;2.60;1.77;;;11.20;95.30;;;;;;5045393;28;20203;-69
2021/04/04 12:56:56;;;;;;;1.35;1.17;;;11.20;95.20;;;;;;5033102;28;20627;-70
2021/04/04 12:59:23;;;;;;;3.50;1.85;;;11.20;95.30;;;;;;5036897;28;20634;-69
2021/04/04 13:01:51;;;;;;;5.10;1.45;;;11.20;95.30;;;;;;5039387;28;20202;-70
2021/04/04 13:04:20;;;;;;;2.00;1.45;;;11.30;95.30;;;;;;5037053;28;20214;-70